Time;durP1;ratioP1;P1;durP2;ratioP2;P2;SDS_P1;SDS_P2;PMS_P1;PMS_P2;Temp;Humidity;BMP_temperature;BMP_pressure;BME280_temperature;BME280_humidity;BME280_pressure;Samples;Min_cycle;Max_cycle;Signal;HPM_P1;HPM_P2
2022/05/16 00:00:36;;;;;;;6.20;3.60;;;21.50;1.00;;;;;;5067579;28;20418;-67
2022/05/16 00:03:03;;;;;;;6.77;3.53;;;21.60;1.00;;;;;;5063384;28;20419;-69
2022/05/16 00:05:30;;;;;;;6.20;3.70;;;21.50;1.00;;;;;;5047471;28;20415;-69
2022/05/16 00:07:55;;;;;;;6.80;3.70;;;21.50;1.00;;;;;;5066085;28;20444;-68
2022/05/16 00:10:21;;;;;;;6.30;3.47;;;21.50;1.00;;;;;;5065469;28;20429;-69
2022/05/16 00:12:47;;;;;;;8.10;3.50;;;21.60;1.00;;;;;;5063864;28;20271;-69
2022/05/16 00:15:16;;;;;;;5.20;3.23;;;21.60;1.00;;;;;;5066556;28;20207;-69
2022/05/16 00:17:42;;;;;;;7.00;3.53;;;21.60;1.00;;;;;;5065658;28;20207;-69
2022/05/16 00:20:09;;;;;;;8.37;3.83;;;21.60;1.00;;;;;;5067572;28;20461;-69
2022/05/16 00:22:34;;;;;;;5.33;3.30;;;21.60;1.00;;;;;;5064781;28;20553;-67
2022/05/16 00:25:00;;;;;;;8.13;3.60;;;22.70;1.00;;;;;;5065371;28;20786;-69
2022/05/16 00:27:25;;;;;;;5.87;3.70;;;21.60;1.00;;;;;;5064379;28;20206;-68
2022/05/16 00:29:51;;;;;;;11.00;3.20;;;21.60;1.00;;;;;;5060075;28;20561;-69
2022/05/16 00:32:18;;;;;;;5.40;3.30;;;21.60;1.00;;;;;;5058927;28;20231;-67
2022/05/16 00:34:44;;;;;;;5.50;3.73;;;21.60;1.00;;;;;;5062945;28;20180;-67
2022/05/16 00:37:10;;;;;;;7.57;3.97;;;21.90;1.00;;;;;;5065540;28;20445;-69
2022/05/16 00:39:35;;;;;;;9.27;3.83;;;21.60;1.00;;;;;;5065203;28;20445;-70
2022/05/16 00:42:01;;;;;;;11.30;3.67;;;21.60;1.00;;;;;;5063202;28;20532;-67
2022/05/16 00:44:28;;;;;;;7.17;3.40;;;21.60;1.00;;;;;;5064042;28;20191;-69
2022/05/16 00:46:53;;;;;;;8.03;3.63;;;21.60;1.00;;;;;;5065848;28;20529;-68
2022/05/16 00:49:29;;;;;;;8.87;3.93;;;21.60;1.00;;;;;;5066770;28;20485;-69
2022/05/16 00:52:08;;;;;;;5.43;3.27;;;21.60;1.00;;;;;;5063949;28;20211;-69
2022/05/16 00:54:55;;;;;;;8.60;3.50;;;21.80;1.00;;;;;;5065238;28;20727;-69
2022/05/16 00:57:25;;;;;;;10.70;3.43;;;21.60;1.00;;;;;;5064754;28;20445;-68
2022/05/16 01:00:10;;;;;;;9.83;3.43;;;21.60;1.00;;;;;;5066485;28;20966;-69
2022/05/16 01:05:23;;;;;;;7.33;3.60;;;21.60;1.00;;;;;;5066646;28;20915;-69
2022/05/16 01:07:49;;;;;;;7.87;3.60;;;21.60;1.00;;;;;;5064541;28;20544;-70
2022/05/16 01:10:19;;;;;;;6.80;3.43;;;21.60;1.00;;;;;;5064555;28;20260;-70
2022/05/16 01:12:47;;;;;;;6.50;3.90;;;21.60;1.00;;;;;;5064348;28;20670;-67
2022/05/16 01:15:38;;;;;;;7.13;3.80;;;21.50;1.00;;;;;;5064734;28;20475;-67
2022/05/16 01:18:06;;;;;;;4.90;3.50;;;21.50;1.00;;;;;;5063052;28;20611;-69
2022/05/16 01:20:45;;;;;;;7.20;3.37;;;21.50;1.00;;;;;;5064658;28;20418;-69
2022/05/16 01:23:14;;;;;;;6.27;3.40;;;21.50;1.00;;;;;;5064714;28;20471;-69
2022/05/16 01:25:40;;;;;;;6.83;3.50;;;21.50;1.00;;;;;;5057577;28;20410;-69
2022/05/16 01:28:05;;;;;;;6.60;3.63;;;21.50;1.00;;;;;;5065538;28;20935;-67
2022/05/16 01:30:40;;;;;;;6.53;3.60;;;21.50;1.00;;;;;;5064795;28;20184;-69
2022/05/16 01:33:06;;;;;;;8.07;3.80;;;21.50;1.00;;;;;;5064174;28;20669;-69
2022/05/16 01:35:33;;;;;;;5.70;3.57;;;21.40;1.00;;;;;;5064576;28;20837;-69
2022/05/16 01:40:43;;;;;;;6.63;3.30;;;21.40;1.00;;;;;;5065877;28;20424;-69
2022/05/16 01:43:09;;;;;;;5.57;3.80;;;21.40;1.00;;;;;;5067430;28;20417;-69
2022/05/16 01:45:36;;;;;;;5.37;3.60;;;21.40;1.00;;;;;;5069565;28;20266;-69
2022/05/16 01:48:02;;;;;;;7.20;3.70;;;21.40;1.00;;;;;;5068835;28;20456;-69
2022/05/16 01:50:28;;;;;;;6.77;3.67;;;21.40;1.00;;;;;;5069352;28;20422;-68
2022/05/16 01:52:53;;;;;;;5.80;3.37;;;21.40;1.00;;;;;;5067116;28;20551;-69
2022/05/16 01:55:19;;;;;;;4.83;3.17;;;21.30;1.00;;;;;;5069102;28;20195;-69
2022/05/16 01:57:44;;;;;;;4.33;3.50;;;21.30;1.00;;;;;;5069324;28;20251;-68
2022/05/16 02:00:14;;;;;;;4.57;3.53;;;23.40;1.00;;;;;;5067415;28;20651;-69
2022/05/16 02:02:41;;;;;;;8.90;3.30;;;21.20;1.00;;;;;;5067007;28;20184;-70
2022/05/16 02:05:07;;;;;;;6.53;4.00;;;21.20;1.00;;;;;;5067988;28;20876;-69
2022/05/16 02:07:33;;;;;;;8.97;3.50;;;21.10;1.00;;;;;;5061022;28;20441;-69
2022/05/16 02:09:59;;;;;;;5.93;3.50;;;21.10;1.00;;;;;;5068710;28;20548;-69
2022/05/16 02:12:24;;;;;;;6.07;3.50;;;21.10;1.00;;;;;;5069119;28;20199;-69
2022/05/16 02:14:50;;;;;;;6.77;3.73;;;21.00;1.00;;;;;;5068803;28;20751;-69
2022/05/16 02:17:15;;;;;;;6.50;3.70;;;21.00;1.00;;;;;;5067278;28;20199;-70
2022/05/16 02:19:41;;;;;;;5.07;3.53;;;20.90;1.00;;;;;;5068904;28;20183;-69
2022/05/16 02:24:50;;;;;;;5.17;3.60;;;20.90;1.00;;;;;;5067057;28;20565;-69
2022/05/16 02:27:16;;;;;;;4.80;3.50;;;20.90;1.00;;;;;;5068562;28;20446;-68
2022/05/16 02:29:44;;;;;;;7.00;4.00;;;20.80;1.00;;;;;;5068932;28;20180;-69
2022/05/16 02:32:10;;;;;;;6.73;3.63;;;20.70;1.00;;;;;;5065999;28;20587;-69
2022/05/16 02:34:36;;;;;;;5.70;3.93;;;20.70;1.00;;;;;;5068414;28;20434;-69
2022/05/16 02:37:02;;;;;;;6.07;4.33;;;20.70;1.00;;;;;;5068582;28;20442;-68
2022/05/16 02:39:28;;;;;;;5.80;3.70;;;20.70;1.00;;;;;;5069178;28;20634;-69
2022/05/16 02:41:55;;;;;;;7.90;3.63;;;20.70;1.00;;;;;;5067299;28;20267;-68
2022/05/16 02:44:21;;;;;;;6.73;3.63;;;20.60;1.00;;;;;;5068334;28;20641;-69
2022/05/16 02:46:47;;;;;;;5.50;3.80;;;20.60;1.00;;;;;;5067969;28;20442;-69
2022/05/16 02:49:13;;;;;;;5.90;3.53;;;20.70;1.00;;;;;;5068630;28;20432;-69
2022/05/16 02:51:39;;;;;;;8.27;3.80;;;20.50;1.00;;;;;;5067406;28;20271;-69
2022/05/16 02:54:04;;;;;;;5.90;3.50;;;20.50;1.00;;;;;;5067308;28;20427;-70
2022/05/16 02:56:30;;;;;;;5.50;3.90;;;20.40;1.00;;;;;;5066573;28;20273;-69
2022/05/16 02:58:55;;;;;;;7.60;3.57;;;20.30;1.00;;;;;;5068752;28;20187;-69
2022/05/16 03:01:21;;;;;;;13.40;4.07;;;20.30;1.00;;;;;;5066771;28;20184;-70
2022/05/16 03:03:47;;;;;;;7.93;4.50;;;20.30;1.00;;;;;;5068093;28;20614;-70
2022/05/16 03:06:13;;;;;;;5.10;3.80;;;20.20;1.00;;;;;;5067291;28;20705;-69
2022/05/16 03:08:39;;;;;;;8.70;4.73;;;20.20;1.00;;;;;;5060676;28;20271;-69
2022/05/16 03:11:05;;;;;;;6.30;4.00;;;20.10;1.00;;;;;;5065732;28;20985;-68
2022/05/16 03:13:31;;;;;;;5.60;3.97;;;20.10;1.00;;;;;;5067630;28;20708;-68
2022/05/16 03:15:58;;;;;;;9.33;4.83;;;20.00;1.00;;;;;;5061749;28;20448;-68
2022/05/16 03:18:23;;;;;;;5.63;3.90;;;20.00;1.00;;;;;;5064873;28;20434;-69
2022/05/16 03:20:51;;;;;;;9.70;4.50;;;19.90;1.00;;;;;;5067189;28;21113;-70
2022/05/16 03:23:17;;;;;;;5.70;4.00;;;19.80;1.00;;;;;;5066787;28;20184;-69
2022/05/16 03:25:43;;;;;;;8.47;4.23;;;19.60;1.00;;;;;;5066253;28;20787;-68
2022/05/16 03:28:08;;;;;;;4.77;3.97;;;19.60;1.00;;;;;;5066206;28;20549;-68
2022/05/16 03:30:35;;;;;;;5.73;3.97;;;19.60;1.00;;;;;;5066434;28;20274;-69
2022/05/16 03:33:00;;;;;;;5.67;4.40;;;19.60;1.00;;;;;;5064753;28;20226;-68
2022/05/16 03:35:26;;;;;;;5.43;4.30;;;19.60;1.00;;;;;;5065544;28;20438;-69
2022/05/16 03:37:52;;;;;;;5.43;3.97;;;19.60;1.00;;;;;;5067636;28;20235;-69
2022/05/16 03:43:01;;;;;;;7.87;4.50;;;19.60;1.00;;;;;;5066880;28;20565;-69
2022/05/16 03:45:27;;;;;;;7.47;4.83;;;19.60;1.00;;;;;;5067626;28;20426;-69
2022/05/16 03:47:52;;;;;;;8.93;4.73;;;19.50;1.00;;;;;;5066613;28;20219;-69
2022/05/16 03:50:18;;;;;;;5.87;4.30;;;19.50;1.00;;;;;;5067143;28;20733;-69
2022/05/16 03:52:44;;;;;;;9.87;4.60;;;19.50;1.00;;;;;;5065244;28;20234;-69
2022/05/16 03:55:15;;;;;;;8.10;4.47;;;19.50;1.00;;;;;;5063617;28;20276;-69
2022/05/16 03:57:42;;;;;;;6.47;4.13;;;19.40;1.00;;;;;;5064262;28;20994;-68
2022/05/16 04:00:09;;;;;;;6.50;4.47;;;19.40;1.00;;;;;;5067051;28;20536;-70
2022/05/16 04:02:36;;;;;;;5.03;3.80;;;19.40;1.00;;;;;;5061870;28;20429;-68
2022/05/16 04:05:02;;;;;;;6.13;4.20;;;19.40;1.00;;;;;;5067668;28;20450;-69
2022/05/16 04:07:28;;;;;;;6.20;4.13;;;19.40;1.00;;;;;;5064585;28;20468;-69
2022/05/16 04:09:53;;;;;;;6.00;4.30;;;19.30;1.00;;;;;;5065584;28;20180;-69
2022/05/16 04:12:19;;;;;;;7.10;4.20;;;19.30;1.00;;;;;;5065942;28;20211;-69
2022/05/16 04:14:44;;;;;;;10.50;4.03;;;19.30;1.00;;;;;;5051905;28;20212;-69
2022/05/16 04:17:10;;;;;;;6.30;4.47;;;19.30;1.00;;;;;;5063746;28;20237;-67
2022/05/16 04:19:36;;;;;;;5.70;4.10;;;19.30;1.00;;;;;;5064563;28;20483;-69
2022/05/16 04:22:02;;;;;;;7.27;4.50;;;19.30;1.00;;;;;;5064281;28;20262;-68
2022/05/16 04:24:27;;;;;;;11.17;4.80;;;19.30;1.00;;;;;;5066132;28;20278;-70
2022/05/16 04:26:53;;;;;;;7.43;4.73;;;19.30;1.00;;;;;;5066250;28;20603;-67
2022/05/16 04:29:18;;;;;;;9.67;4.60;;;19.40;1.00;;;;;;5067054;28;20190;-69
2022/05/16 04:31:44;;;;;;;6.50;4.10;;;19.40;1.00;;;;;;5065430;28;20207;-70
2022/05/16 04:34:09;;;;;;;7.00;4.13;;;19.40;1.00;;;;;;5066788;28;20655;-69
2022/05/16 04:36:37;;;;;;;8.60;4.77;;;19.40;1.00;;;;;;5065730;28;20235;-69
2022/05/16 04:39:03;;;;;;;9.83;4.53;;;19.40;1.00;;;;;;5065204;28;20176;-69
2022/05/16 04:44:13;;;;;;;7.27;4.43;;;19.50;1.00;;;;;;5064130;28;20401;-69
2022/05/16 04:46:38;;;;;;;8.70;4.23;;;19.70;1.00;;;;;;5064877;28;20521;-70
2022/05/16 04:49:04;;;;;;;6.93;4.60;;;19.80;1.00;;;;;;5064630;28;20294;-69
2022/05/16 04:51:29;;;;;;;6.50;4.57;;;19.80;1.00;;;;;;5063052;28;20226;-70
2022/05/16 04:53:55;;;;;;;6.90;4.50;;;19.90;1.00;;;;;;5066401;28;20179;-68
2022/05/16 04:56:20;;;;;;;8.30;4.70;;;20.00;1.00;;;;;;5065529;28;20374;-69
2022/05/16 04:58:46;;;;;;;6.10;4.70;;;20.20;1.00;;;;;;5066611;28;20180;-68
2022/05/16 05:01:11;;;;;;;9.20;4.87;;;20.30;1.00;;;;;;5063628;28;20188;-68
2022/05/16 05:03:37;;;;;;;7.80;4.20;;;20.40;1.00;;;;;;5065346;28;20184;-68
2022/05/16 05:06:03;;;;;;;8.87;4.20;;;20.50;1.00;;;;;;5065743;28;20215;-67
2022/05/16 05:08:29;;;;;;;13.60;4.60;;;20.70;1.00;;;;;;5065845;28;20183;-69
2022/05/16 05:16:24;;;;;;;10.33;4.80;;;21.10;1.00;;;;;;5065237;28;20475;-68
2022/05/16 05:18:50;;;;;;;9.50;4.30;;;21.30;1.00;;;;;;5068059;28;20703;-69
2022/05/16 05:21:16;;;;;;;8.77;4.83;;;21.40;1.00;;;;;;5068548;28;20429;-69
2022/05/16 05:23:41;;;;;;;8.13;4.80;;;21.30;1.00;;;;;;5070524;28;21198;-69
2022/05/16 05:26:08;;;;;;;6.17;4.03;;;21.40;1.00;;;;;;5069562;28;20187;-67
2022/05/16 05:28:34;;;;;;;6.83;4.30;;;21.40;1.00;;;;;;5065413;28;20188;-68
2022/05/16 05:31:00;;;;;;;5.55;3.80;;;21.40;1.00;;;;;;5058445;28;20430;-71
2022/05/16 05:33:26;;;;;;;8.97;4.90;;;21.50;1.00;;;;;;5041231;28;20192;-69
2022/05/16 05:35:52;;;;;;;6.97;4.30;;;21.60;1.00;;;;;;5047709;28;20433;-70
2022/05/16 05:38:18;;;;;;;9.60;4.60;;;21.50;1.00;;;;;;5049008;28;20210;-69
2022/05/16 05:40:44;;;;;;;7.43;4.63;;;21.40;1.00;;;;;;5043791;28;20242;-71
2022/05/16 05:43:10;;;;;;;7.00;4.67;;;21.50;1.00;;;;;;5058980;28;20180;-70
2022/05/16 05:45:36;;;;;;;7.17;5.03;;;21.40;1.00;;;;;;5066861;28;20502;-69
2022/05/16 05:48:04;;;;;;;6.43;4.37;;;21.40;1.00;;;;;;5061560;28;20183;-69
2022/05/16 05:50:30;;;;;;;6.47;4.90;;;21.50;1.00;;;;;;5057834;28;20526;-70
2022/05/16 05:52:56;;;;;;;6.40;4.57;;;21.50;1.00;;;;;;5066037;28;20414;-71
2022/05/16 05:55:22;;;;;;;7.20;4.50;;;21.50;1.00;;;;;;5066592;28;20418;-71
2022/05/16 05:57:48;;;;;;;6.50;4.70;;;21.50;1.00;;;;;;5065317;28;20510;-70
2022/05/16 06:00:14;;;;;;;7.90;4.73;;;21.60;1.00;;;;;;5065301;28;20172;-70
2022/05/16 06:02:41;;;;;;;8.40;5.00;;;21.60;1.00;;;;;;5051280;28;20309;-69
2022/05/16 06:05:13;;;;;;;10.43;4.93;;;21.70;1.00;;;;;;5057076;28;20502;-70
2022/05/16 06:07:38;;;;;;;5.70;4.13;;;21.80;1.00;;;;;;5058352;28;20454;-70
2022/05/16 06:10:05;;;;;;;10.97;4.60;;;22.00;1.00;;;;;;5052277;28;20763;-69
2022/05/16 06:12:31;;;;;;;7.90;4.40;;;22.10;1.00;;;;;;5060642;28;20204;-69
2022/05/16 06:14:57;;;;;;;7.10;4.50;;;22.20;1.00;;;;;;5067506;28;20873;-71
2022/05/16 06:17:23;;;;;;;9.83;4.73;;;22.50;1.00;;;;;;5066623;28;20442;-70
2022/05/16 06:19:48;;;;;;;5.80;4.33;;;22.70;1.00;;;;;;5066489;28;20180;-70
2022/05/16 06:22:14;;;;;;;5.63;4.43;;;22.90;1.00;;;;;;5065932;28;20191;-70
2022/05/16 06:27:38;;;;;;;9.70;5.20;;;22.90;1.00;;;;;;5051121;28;20203;-70
2022/05/16 06:30:04;;;;;;;7.33;4.63;;;22.90;1.00;;;;;;5056509;28;20414;-69
2022/05/16 06:32:29;;;;;;;6.30;4.87;;;22.80;1.00;;;;;;5065942;28;20211;-67
2022/05/16 06:34:56;;;;;;;8.27;4.57;;;22.70;1.00;;;;;;5066762;28;20697;-69
2022/05/16 06:37:21;;;;;;;5.33;4.20;;;22.50;1.00;;;;;;5064463;28;20647;-70
2022/05/16 06:39:47;;;;;;;6.00;3.87;;;22.50;1.00;;;;;;5049981;28;20718;-69
2022/05/16 06:42:13;;;;;;;6.63;4.70;;;22.50;1.00;;;;;;5058211;28;20179;-69
2022/05/16 06:44:39;;;;;;;6.57;4.40;;;22.30;1.00;;;;;;5065067;28;20199;-68
2022/05/16 06:47:05;;;;;;;6.40;4.33;;;22.30;1.00;;;;;;5062984;28;20202;-69
2022/05/16 06:49:31;;;;;;;5.67;4.07;;;22.30;1.00;;;;;;5057402;28;20419;-68
2022/05/16 06:51:57;;;;;;;6.97;4.77;;;22.40;1.00;;;;;;5063722;28;20460;-70
2022/05/16 06:54:22;;;;;;;9.30;4.33;;;22.40;1.00;;;;;;5065661;28;20632;-70
2022/05/16 06:56:48;;;;;;;9.37;4.67;;;22.50;1.00;;;;;;5065651;28;20737;-70
2022/05/16 06:59:13;;;;;;;11.87;4.83;;;22.60;1.00;;;;;;5066108;28;20195;-70
2022/05/16 07:01:39;;;;;;;8.43;5.00;;;22.70;1.00;;;;;;5064508;28;20172;-69
2022/05/16 07:04:04;;;;;;;9.23;4.63;;;22.80;1.00;;;;;;5062241;28;20172;-69
2022/05/16 07:06:31;;;;;;;15.17;5.10;;;22.90;1.00;;;;;;5064917;28;20279;-69
2022/05/16 07:08:56;;;;;;;5.97;4.80;;;23.10;1.00;;;;;;5058197;28;20180;-69
2022/05/16 07:11:22;;;;;;;6.20;4.60;;;23.30;1.00;;;;;;5052640;28;20469;-69
2022/05/16 07:13:47;;;;;;;8.97;4.70;;;23.50;1.00;;;;;;5065156;28;21570;-70
2022/05/16 07:16:13;;;;;;;11.47;4.70;;;23.80;1.00;;;;;;5064694;28;20261;-69
2022/05/16 07:18:38;;;;;;;8.63;4.70;;;23.90;1.00;;;;;;5065029;28;20190;-69
2022/05/16 07:21:05;;;;;;;7.77;4.50;;;24.20;1.00;;;;;;5064874;28;20517;-69
2022/05/16 07:23:30;;;;;;;10.80;4.73;;;24.50;1.00;;;;;;5065566;28;20622;-68
2022/05/16 07:28:40;;;;;;;7.03;4.53;;;24.20;1.00;;;;;;5065128;28;20182;-69
2022/05/16 07:31:06;;;;;;;10.37;5.10;;;24.00;1.00;;;;;;5058979;28;20463;-70
2022/05/16 07:33:31;;;;;;;7.50;4.90;;;24.00;1.00;;;;;;5060307;28;20198;-68
2022/05/16 07:35:57;;;;;;;7.63;4.57;;;24.10;1.00;;;;;;5064511;28;20172;-70
2022/05/16 07:38:27;;;;;;;7.30;5.07;;;24.00;1.00;;;;;;5063554;28;20287;-70
2022/05/16 07:40:55;;;;;;;8.53;5.20;;;24.10;1.00;;;;;;5055443;28;20184;-70
2022/05/16 07:43:21;;;;;;;11.03;4.80;;;24.10;1.00;;;;;;5065170;28;20456;-70
2022/05/16 07:45:47;;;;;;;8.20;5.27;;;24.30;1.00;;;;;;5062241;28;20530;-70
2022/05/16 07:48:14;;;;;;;9.27;4.80;;;24.40;1.00;;;;;;5055665;28;20528;-71
2022/05/16 07:50:40;;;;;;;8.83;5.10;;;24.50;1.00;;;;;;5064224;28;20290;-70
2022/05/16 07:53:11;;;;;;;6.63;5.10;;;24.70;1.00;;;;;;5054348;28;20566;-70
2022/05/16 07:55:43;;;;;;;10.37;5.20;;;25.00;1.00;;;;;;5043982;28;20519;-69
2022/05/16 07:58:09;;;;;;;7.13;4.90;;;25.10;1.00;;;;;;5060821;28;20520;-70
2022/05/16 08:00:35;;;;;;;10.53;5.10;;;25.20;1.00;;;;;;5059856;28;21011;-69
2022/05/16 08:03:02;;;;;;;10.70;5.20;;;25.30;1.00;;;;;;5061234;28;20182;-70
2022/05/16 08:05:27;;;;;;;8.30;5.10;;;25.20;1.00;;;;;;5064974;28;20208;-70
2022/05/16 08:10:39;;;;;;;10.33;5.60;;;25.80;1.00;;;;;;5061203;28;20609;-69
2022/05/16 08:13:10;;;;;;;8.47;5.10;;;26.10;1.00;;;;;;5046061;28;20423;-69
2022/05/16 08:15:38;;;;;;;7.90;5.27;;;26.40;1.00;;;;;;5043226;28;20411;-69
2022/05/16 08:18:05;;;;;;;7.60;5.70;;;26.50;1.00;;;;;;5043023;28;20427;-69
2022/05/16 08:20:32;;;;;;;6.43;4.80;;;26.30;1.00;;;;;;5047236;28;20179;-69
2022/05/16 08:22:58;;;;;;;7.83;5.20;;;26.50;1.00;;;;;;5058919;28;20549;-70
2022/05/16 08:25:24;;;;;;;7.70;5.40;;;26.70;1.00;;;;;;5063666;28;20221;-71
2022/05/16 08:27:50;;;;;;;7.63;5.80;;;27.00;1.00;;;;;;5063166;28;20196;-71
2022/05/16 08:30:16;;;;;;;8.03;5.50;;;27.10;1.00;;;;;;5063482;28;20198;-70
2022/05/16 08:32:43;;;;;;;7.93;5.67;;;27.30;1.00;;;;;;5061923;28;20587;-70
2022/05/16 08:35:10;;;;;;;10.20;6.10;;;27.70;1.00;;;;;;5062924;28;20225;-71
2022/05/16 08:40:23;;;;;;;7.87;5.27;;;27.90;1.00;;;;;;5063096;28;20213;-70
2022/05/16 08:43:08;;;;;;;10.80;5.73;;;28.50;1.00;;;;;;5059168;28;20200;-70
2022/05/16 08:45:51;;;;;;;8.63;5.50;;;28.60;1.00;;;;;;5061543;28;20190;-69
2022/05/16 08:48:24;;;;;;;8.30;5.73;;;29.10;1.00;;;;;;5042552;28;20227;-71
2022/05/16 08:50:54;;;;;;;7.15;5.60;;;29.60;1.00;;;;;;5042498;28;20272;-70
2022/05/16 08:53:28;;;;;;;8.40;5.22;;;30.00;1.00;;;;;;5042479;28;20747;-69
2022/05/16 08:55:58;;;;;;;8.45;5.60;;;30.70;1.00;;;;;;5048501;28;21376;-71
2022/05/16 08:58:29;;;;;;;8.48;5.40;;;31.50;1.00;;;;;;5063466;28;20257;-71
2022/05/16 09:00:59;;;;;;;7.35;5.25;;;32.10;1.00;;;;;;5060226;28;20180;-71
2022/05/16 09:03:27;;;;;;;8.50;5.40;;;32.70;1.00;;;;;;5062080;28;20234;-71
2022/05/16 09:06:02;;;;;;;7.30;5.47;;;33.20;1.00;;;;;;5063038;28;20260;-71
2022/05/16 09:08:38;;;;;;;8.35;5.68;;;32.80;1.00;;;;;;5063815;28;20225;-70
2022/05/16 09:11:22;;;;;;;11.38;5.63;;;32.90;1.00;;;;;;5061288;28;20202;-69
2022/05/16 09:13:53;;;;;;;9.85;5.90;;;32.30;1.00;;;;;;5058324;28;20180;-71
2022/05/16 09:16:30;;;;;;;6.70;5.32;;;32.00;1.00;;;;;;5063033;28;20176;-70
2022/05/16 09:19:21;;;;;;;6.65;5.40;;;32.00;1.00;;;;;;5063122;28;20167;-71
2022/05/16 09:21:56;;;;;;;8.85;5.57;;;32.60;1.00;;;;;;5062043;28;20289;-70
2022/05/16 09:24:28;;;;;;;13.93;6.00;;;33.30;1.00;;;;;;5063658;28;20202;-71
2022/05/16 09:28:34;;;;;;;13.93;5.53;;;33.80;1.00;;;;;;5062357;28;20749;-71
2022/05/16 09:30:06;;;;;;;9.20;5.35;;;34.10;1.00;;;;;;5062868;28;20222;-71
2022/05/16 09:32:36;;;;;;;10.25;5.55;;;35.30;1.00;;;;;;5061718;28;20213;-69
2022/05/16 09:35:04;;;;;;;8.35;5.10;;;34.70;1.00;;;;;;5060526;28;20176;-70
2022/05/16 09:37:30;;;;;;;12.38;5.35;;;34.10;1.00;;;;;;5060349;28;20192;-70
2022/05/16 09:39:56;;;;;;;9.43;5.40;;;33.80;1.00;;;;;;5063805;28;20180;-71
2022/05/16 09:42:32;;;;;;;11.73;5.60;;;33.20;1.00;;;;;;5063231;28;20176;-71
2022/05/16 09:45:09;;;;;;;9.88;5.90;;;34.00;1.00;;;;;;5063233;28;20207;-71
2022/05/16 09:47:40;;;;;;;8.02;5.30;;;34.10;1.00;;;;;;5059613;28;20207;-70
2022/05/16 09:50:14;;;;;;;13.02;5.30;;;34.60;1.00;;;;;;5057252;28;20165;-71
2022/05/16 09:53:09;;;;;;;12.25;5.18;;;34.90;1.00;;;;;;5051851;28;20230;-71
2022/05/16 09:55:51;;;;;;;11.85;5.03;;;35.50;1.00;;;;;;5050692;28;20642;-70
2022/05/16 09:58:48;;;;;;;9.68;5.13;;;35.30;1.00;;;;;;5044130;28;20192;-71
2022/05/16 10:01:32;;;;;;;13.07;6.05;;;34.40;1.00;;;;;;5060126;28;20188;-71
2022/05/16 10:04:10;;;;;;;12.55;5.13;;;34.00;1.00;;;;;;5064579;28;20178;-70
2022/05/16 10:06:37;;;;;;;10.75;4.43;;;34.10;1.00;;;;;;5062034;28;20199;-70
2022/05/16 10:09:16;;;;;;;10.32;5.07;;;34.60;1.00;;;;;;5057301;28;20268;-69
2022/05/16 10:11:48;;;;;;;8.15;4.80;;;32.70;1.00;;;;;;5061321;28;20567;-70
2022/05/16 10:14:14;;;;;;;17.73;5.88;;;32.20;1.00;;;;;;5052974;28;20289;-70
2022/05/16 10:16:45;;;;;;;10.20;5.40;;;31.80;1.00;;;;;;5066108;28;20195;-70
2022/05/16 10:19:15;;;;;;;10.23;4.95;;;31.10;1.00;;;;;;5066896;28;20535;-71
2022/05/16 10:21:50;;;;;;;13.27;5.70;;;30.70;1.00;;;;;;5060695;28;20270;-70
2022/05/16 10:24:16;;;;;;;7.30;5.15;;;30.20;1.00;;;;;;5065632;28;20187;-70
2022/05/16 10:26:45;;;;;;;7.95;4.72;;;30.50;1.00;;;;;;5049329;28;20197;-71
2022/05/16 10:29:15;;;;;;;15.70;5.03;;;30.60;1.00;;;;;;5065357;28;20180;-70
2022/05/16 10:35:02;;;;;;;13.45;4.80;;;30.40;1.00;;;;;;5051669;28;20281;-68
2022/05/16 10:37:31;;;;;;;10.93;4.70;;;31.30;1.00;;;;;;5062844;28;20188;-70
2022/05/16 10:40:06;;;;;;;7.63;4.10;;;32.30;1.00;;;;;;5062346;28;20294;-70
2022/05/16 10:42:55;;;;;;;7.85;3.92;;;33.20;1.00;;;;;;5068871;28;20315;-70
2022/05/16 10:45:25;;;;;;;9.85;4.25;;;32.40;1.00;;;;;;5063189;28;20209;-72
2022/05/16 10:48:43;;;;;;;12.75;3.80;;;31.30;1.00;;;;;;5061837;28;20219;-70
2022/05/16 10:51:26;;;;;;;9.77;3.47;;;30.70;1.00;;;;;;5038583;28;20201;-69
2022/05/16 10:54:32;;;;;;;7.03;3.60;;;30.70;1.00;;;;;;5038921;28;20192;-70
2022/05/16 10:57:20;;;;;;;10.57;3.92;;;30.40;1.00;;;;;;5001849;28;20233;-70
2022/05/16 10:59:51;;;;;;;7.63;3.75;;;30.30;1.00;;;;;;5065888;28;20214;-70
2022/05/16 11:02:19;;;;;;;8.73;3.67;;;30.20;1.00;;;;;;5044132;28;21308;-71
2022/05/16 11:05:10;;;;;;;7.88;3.53;;;30.50;1.00;;;;;;5063820;28;20746;-70
2022/05/16 11:07:55;;;;;;;13.13;3.80;;;31.10;1.00;;;;;;5039648;28;20634;-70
2022/05/16 11:10:45;;;;;;;7.40;3.78;;;31.10;1.00;;;;;;5058010;28;20176;-69
2022/05/16 11:13:35;;;;;;;7.43;3.70;;;30.80;1.00;;;;;;5055657;28;20176;-72
2022/05/16 11:16:24;;;;;;;11.20;3.45;;;30.30;1.00;;;;;;5067459;28;20164;-69
2022/05/16 11:19:12;;;;;;;12.05;4.00;;;29.60;1.00;;;;;;5068707;28;20172;-70
2022/05/16 11:22:00;;;;;;;8.10;4.53;;;28.80;1.00;;;;;;5068217;28;20180;-70
2022/05/16 11:24:28;;;;;;;7.20;3.45;;;28.70;1.00;;;;;;5069019;28;20697;-70
2022/05/16 11:27:16;;;;;;;18.40;4.10;;;28.50;1.00;;;;;;5068496;28;20214;-70
2022/05/16 11:29:56;;;;;;;10.33;4.00;;;28.30;1.00;;;;;;5068876;28;20188;-69
2022/05/16 11:32:40;;;;;;;14.55;3.58;;;28.90;1.00;;;;;;5066811;28;20203;-70
2022/05/16 11:35:08;;;;;;;10.60;3.63;;;29.30;1.00;;;;;;5061510;28;20172;-70
2022/05/16 11:38:09;;;;;;;8.20;3.53;;;28.60;1.00;;;;;;5066881;28;20730;-70
2022/05/16 11:40:46;;;;;;;8.38;3.35;;;29.00;1.00;;;;;;5057984;28;20241;-70
2022/05/16 11:43:26;;;;;;;12.25;3.35;;;29.30;1.00;;;;;;5067786;28;20178;-69
2022/05/16 11:46:17;;;;;;;7.13;2.85;;;29.70;1.00;;;;;;5067570;28;20185;-70
2022/05/16 11:49:14;;;;;;;13.10;2.78;;;30.00;1.00;;;;;;5066430;28;20168;-70
2022/05/16 11:51:55;;;;;;;7.45;2.63;;;30.10;1.00;;;;;;5067392;28;20275;-70
2022/05/16 11:54:28;;;;;;;7.90;2.90;;;30.50;1.00;;;;;;5068759;28;20247;-70
2022/05/16 12:02:30;;;;;;;6.68;2.30;;;28.70;1.00;;;;;;5067087;28;20339;-71
2022/05/16 12:05:02;;;;;;;3.83;2.40;;;28.20;1.00;;;;;;5068589;28;20195;-69
2022/05/16 12:07:35;;;;;;;8.07;2.07;;;28.60;1.00;;;;;;5067551;28;20310;-70
2022/05/16 12:10:22;;;;;;;7.07;2.08;;;28.50;1.00;;;;;;5059928;28;20198;-70
2022/05/16 12:13:22;;;;;;;7.97;2.28;;;28.30;1.00;;;;;;5067429;28;20207;-71
2022/05/16 12:15:48;;;;;;;8.35;2.08;;;28.90;1.00;;;;;;5068315;28;20164;-71
2022/05/16 12:18:38;;;;;;;4.03;1.65;;;28.90;1.00;;;;;;5067577;28;20301;-70
2022/05/16 12:21:19;;;;;;;2.75;1.58;;;28.20;1.00;;;;;;5067276;28;20191;-70
2022/05/16 12:23:48;;;;;;;14.70;2.23;;;27.40;1.00;;;;;;5067716;28;20175;-70
2022/05/16 12:26:26;;;;;;;3.23;1.80;;;26.90;1.00;;;;;;5067548;28;20179;-71
2022/05/16 12:29:10;;;;;;;4.70;1.83;;;26.80;1.00;;;;;;5067713;28;20172;-70
2022/05/16 12:31:45;;;;;;;2.97;1.80;;;26.30;1.00;;;;;;5067214;28;20712;-70
2022/05/16 12:34:37;;;;;;;10.00;1.90;;;25.90;1.00;;;;;;5067942;28;20253;-70
2022/05/16 12:37:06;;;;;;;4.33;2.13;;;25.40;1.00;;;;;;5065350;28;20188;-70
2022/05/16 12:39:51;;;;;;;7.13;2.37;;;24.80;1.00;;;;;;5051964;28;20480;-70
2022/05/16 12:42:22;;;;;;;4.90;2.37;;;24.10;1.00;;;;;;5046889;28;20554;-70
2022/05/16 12:44:56;;;;;;;8.43;2.50;;;23.80;1.00;;;;;;5065281;28;20414;-70
2022/05/16 12:47:37;;;;;;;4.53;2.67;;;23.60;5.00;;;;;;5066433;28;20437;-70
2022/05/16 12:50:23;;;;;;;5.90;2.93;;;23.40;7.70;;;;;;5068321;28;20455;-70
2022/05/16 12:53:19;;;;;;;6.00;2.70;;;23.00;16.00;;;;;;5065282;28;20442;-70
2022/05/16 12:55:47;;;;;;;6.40;2.90;;;22.90;21.20;;;;;;5068144;28;20904;-70
2022/05/16 12:58:32;;;;;;;6.57;3.40;;;22.70;22.90;;;;;;5067623;28;20436;-69
2022/05/16 13:01:21;;;;;;;7.43;2.87;;;22.80;24.20;;;;;;5066854;28;20982;-69
2022/05/16 13:04:09;;;;;;;6.97;2.83;;;23.00;23.40;;;;;;5067458;28;20431;-70
2022/05/16 13:06:48;;;;;;;6.00;2.70;;;23.30;20.90;;;;;;5067460;28;20433;-70
2022/05/16 13:09:14;;;;;;;6.60;3.10;;;23.80;14.90;;;;;;5067927;28;20946;-70
2022/05/16 13:11:47;;;;;;;6.50;2.40;;;24.40;12.70;;;;;;5066504;28;20701;-70
2022/05/16 13:14:25;;;;;;;8.60;2.50;;;25.80;6.00;;;;;;5067889;28;20744;-70
2022/05/16 13:17:00;;;;;;;5.00;3.10;;;28.20;1.00;;;;;;5066952;28;20422;-70
2022/05/16 13:19:35;;;;;;;5.23;2.57;;;29.40;1.00;;;;;;5067445;28;20247;-70
2022/05/16 13:22:18;;;;;;;3.65;2.38;;;30.10;1.00;;;;;;5066436;28;20174;-70
2022/05/16 13:24:44;;;;;;;4.68;2.45;;;30.30;1.00;;;;;;5063592;28;20589;-71
2022/05/16 13:30:09;;;;;;;7.97;2.72;;;31.00;1.00;;;;;;5048219;28;20488;-71
2022/05/16 13:32:35;;;;;;;5.35;2.80;;;32.40;1.00;;;;;;5053245;28;20295;-70
2022/05/16 13:35:05;;;;;;;7.22;2.97;;;33.00;1.00;;;;;;5059396;28;20631;-71
2022/05/16 13:37:43;;;;;;;4.15;2.20;;;33.90;1.00;;;;;;5067239;28;20184;-71
2022/05/16 13:40:34;;;;;;;6.60;2.35;;;34.10;1.00;;;;;;5071359;28;20504;-72
2022/05/16 13:43:00;;;;;;;7.68;2.40;;;32.50;1.00;;;;;;5070375;28;20175;-71
2022/05/16 13:45:29;;;;;;;4.22;2.38;;;30.60;1.00;;;;;;5071652;28;20183;-71
2022/05/16 13:48:07;;;;;;;6.13;2.60;;;29.10;1.00;;;;;;5070041;28;20188;-71
2022/05/16 13:50:33;;;;;;;7.30;2.50;;;27.90;1.00;;;;;;5071212;28;20229;-71
2022/05/16 13:53:00;;;;;;;6.82;2.58;;;29.20;1.00;;;;;;5069955;28;20204;-71
2022/05/16 13:55:27;;;;;;;5.05;2.60;;;27.30;1.00;;;;;;5070783;28;20164;-70